sensor_id;sensor_type;location;lat;lon;timestamp;pressure;altitude;pressure_sealevel;temperature;humidity
76311;BME280;65120;59.304;18.294;2023-11-21T00:02:13;101907.03;;;1.53;76.97
76311;BME280;65120;59.304;18.294;2023-11-21T00:04:41;101907.03;;;1.53;76.81
76311;BME280;65120;59.304;18.294;2023-11-21T00:07:08;101907.03;;;1.53;77.21
76311;BME280;65120;59.304;18.294;2023-11-21T00:09:34;101909.63;;;1.53;77.28
76311;BME280;65120;59.304;18.294;2023-11-21T00:12:02;101914.72;;;1.52;77.10
76311;BME280;65120;59.304;18.294;2023-11-21T00:14:29;101913.88;;;1.51;77.00
76311;BME280;65120;59.304;18.294;2023-11-21T00:16:56;101915.59;;;1.52;77.00
76311;BME280;65120;59.304;18.294;2023-11-21T00:19:22;101919.81;;;1.50;77.45
76311;BME280;65120;59.304;18.294;2023-11-21T00:21:51;101921.50;;;1.50;76.61
76311;BME280;65120;59.304;18.294;2023-11-21T00:24:17;101920.66;;;1.49;76.85
76311;BME280;65120;59.304;18.294;2023-11-21T00:26:44;101913.78;;;1.50;77.04
76311;BME280;65120;59.304;18.294;2023-11-21T00:29:14;101928.38;;;1.49;76.70
76311;BME280;65120;59.304;18.294;2023-11-21T00:31:42;101920.66;;;1.49;76.76
76311;BME280;65120;59.304;18.294;2023-11-21T00:34:10;101930.94;;;1.49;77.43
76311;BME280;65120;59.304;18.294;2023-11-21T00:36:37;101935.25;;;1.50;76.65
76311;BME280;65120;59.304;18.294;2023-11-21T00:39:05;101930.94;;;1.49;76.87
76311;BME280;65120;59.304;18.294;2023-11-21T00:41:33;101931.81;;;1.50;77.23
76311;BME280;65120;59.304;18.294;2023-11-21T00:44:00;101930.06;;;1.49;77.15
76311;BME280;65120;59.304;18.294;2023-11-21T00:46:27;101930.94;;;1.49;76.69
76311;BME280;65120;59.304;18.294;2023-11-21T00:48:54;101931.81;;;1.50;76.98
76311;BME280;65120;59.304;18.294;2023-11-21T00:51:22;101924.75;;;1.44;76.98
76311;BME280;65120;59.304;18.294;2023-11-21T00:53:49;101931.81;;;1.50;77.11
76311;BME280;65120;59.304;18.294;2023-11-21T00:56:17;101931.81;;;1.50;77.43
76311;BME280;65120;59.304;18.294;2023-11-21T00:58:44;101936.97;;;1.50;77.07
76311;BME280;65120;59.304;18.294;2023-11-21T01:01:15;101937.84;;;1.50;77.07
76311;BME280;65120;59.304;18.294;2023-11-21T01:03:42;101931.81;;;1.50;77.33
76311;BME280;65120;59.304;18.294;2023-11-21T01:06:09;101937.84;;;1.50;77.70
76311;BME280;65120;59.304;18.294;2023-11-21T01:08:36;101937.84;;;1.50;77.43
76311;BME280;65120;59.304;18.294;2023-11-21T01:11:03;101936.97;;;1.50;77.65
76311;BME280;65120;59.304;18.294;2023-11-21T01:13:34;101939.63;;;1.51;77.69
76311;BME280;65120;59.304;18.294;2023-11-21T01:16:01;101943.88;;;1.51;77.52
76311;BME280;65120;59.304;18.294;2023-11-21T01:18:29;101948.13;;;1.50;77.13
76311;BME280;65120;59.304;18.294;2023-11-21T01:20:56;101949.91;;;1.51;77.30
76311;BME280;65120;59.304;18.294;2023-11-21T01:23:22;101949.03;;;1.51;77.16
76311;BME280;65120;59.304;18.294;2023-11-21T01:25:49;101954.22;;;1.52;77.48
76311;BME280;65120;59.304;18.294;2023-11-21T01:28:17;101958.56;;;1.53;77.07
76311;BME280;65120;59.304;18.294;2023-11-21T01:30:46;101956.81;;;1.52;77.62
76311;BME280;65120;59.304;18.294;2023-11-21T01:33:13;101953.41;;;1.53;77.50
76311;BME280;65120;59.304;18.294;2023-11-21T01:35:41;101957.69;;;1.53;77.28
76311;BME280;65120;59.304;18.294;2023-11-21T01:38:07;101960.31;;;1.54;77.57
76311;BME280;65120;59.304;18.294;2023-11-21T01:40:34;101961.13;;;1.53;77.22
76311;BME280;65120;59.304;18.294;2023-11-21T01:43:01;101964.66;;;1.55;77.15
76311;BME280;65120;59.304;18.294;2023-11-21T01:45:29;101967.22;;;1.55;77.17
76311;BME280;65120;59.304;18.294;2023-11-21T01:47:58;101970.66;;;1.56;77.15
76311;BME280;65120;59.304;18.294;2023-11-21T01:50:26;101972.38;;;1.55;77.52
76311;BME280;65120;59.304;18.294;2023-11-21T01:52:53;101973.25;;;1.56;77.62
76311;BME280;65120;59.304;18.294;2023-11-21T01:55:21;101979.25;;;1.56;77.74
76311;BME280;65120;59.304;18.294;2023-11-21T01:57:48;101974.13;;;1.56;77.30
76311;BME280;65120;59.304;18.294;2023-11-21T02:00:15;101979.25;;;1.56;77.46
76311;BME280;65120;59.304;18.294;2023-11-21T02:02:42;101975.88;;;1.57;77.39
76311;BME280;65120;59.304;18.294;2023-11-21T02:05:10;101978.50;;;1.59;77.80
76311;BME280;65120;59.304;18.294;2023-11-21T02:07:38;101984.56;;;1.60;78.05
76311;BME280;65120;59.304;18.294;2023-11-21T02:10:06;101980.28;;;1.60;77.71
76311;BME280;65120;59.304;18.294;2023-11-21T02:12:33;101984.56;;;1.60;77.23
76311;BME280;65120;59.304;18.294;2023-11-21T02:15:02;101980.28;;;1.60;77.79
76311;BME280;65120;59.304;18.294;2023-11-21T02:17:30;101981.16;;;1.61;77.79
76311;BME280;65120;59.304;18.294;2023-11-21T02:19:58;101993.19;;;1.62;77.41
76311;BME280;65120;59.304;18.294;2023-11-21T02:22:29;101987.25;;;1.63;77.50
76311;BME280;65120;59.304;18.294;2023-11-21T02:24:59;101986.41;;;1.64;77.51
76311;BME280;65120;59.304;18.294;2023-11-21T02:27:26;101986.34;;;1.62;77.73
76311;BME280;65120;59.304;18.294;2023-11-21T02:29:53;101995.00;;;1.64;77.45
76311;BME280;65120;59.304;18.294;2023-11-21T02:32:20;101989.00;;;1.64;77.76
76311;BME280;65120;59.304;18.294;2023-11-21T02:34:48;101999.38;;;1.65;77.93
76311;BME280;65120;59.304;18.294;2023-11-21T02:37:15;101994.91;;;1.61;77.31
76311;BME280;65120;59.304;18.294;2023-11-21T02:39:42;102003.63;;;1.65;77.91
76311;BME280;65120;59.304;18.294;2023-11-21T02:42:10;102011.34;;;1.65;77.67
76311;BME280;65120;59.304;18.294;2023-11-21T02:44:37;102007.88;;;1.64;77.35
76311;BME280;65120;59.304;18.294;2023-11-21T02:47:04;102012.16;;;1.64;78.05
76311;BME280;65120;59.304;18.294;2023-11-21T02:49:31;102009.59;;;1.64;77.33
76311;BME280;65120;59.304;18.294;2023-11-21T02:52:00;102012.09;;;1.62;77.37
76311;BME280;65120;59.304;18.294;2023-11-21T02:54:27;102016.38;;;1.62;77.33
76311;BME280;65120;59.304;18.294;2023-11-21T02:56:54;102018.94;;;1.62;77.28
76311;BME280;65120;59.304;18.294;2023-11-21T02:59:22;102029.31;;;1.63;77.29
76311;BME280;65120;59.304;18.294;2023-11-21T03:01:49;102027.63;;;1.64;77.69
76311;BME280;65120;59.304;18.294;2023-11-21T03:04:16;102026.75;;;1.63;77.50
76311;BME280;65120;59.304;18.294;2023-11-21T03:06:43;102017.25;;;1.62;77.85
76311;BME280;65120;59.304;18.294;2023-11-21T03:09:11;102019.03;;;1.63;77.42
76311;BME280;65120;59.304;18.294;2023-11-21T03:11:38;102025.88;;;1.63;78.05
76311;BME280;65120;59.304;18.294;2023-11-21T03:14:05;102030.19;;;1.64;77.72
76311;BME280;65120;59.304;18.294;2023-11-21T03:16:33;102035.34;;;1.64;77.44
76311;BME280;65120;59.304;18.294;2023-11-21T03:19:00;102039.66;;;1.65;77.81
76311;BME280;65120;59.304;18.294;2023-11-21T03:21:27;102042.25;;;1.65;77.83
76311;BME280;65120;59.304;18.294;2023-11-21T03:23:54;102049.97;;;1.65;77.88
76311;BME280;65120;59.304;18.294;2023-11-21T03:26:22;102047.41;;;1.65;77.44
76311;BME280;65120;59.304;18.294;2023-11-21T03:28:48;102050.88;;;1.65;77.63
76311;BME280;65120;59.304;18.294;2023-11-21T03:31:15;102057.69;;;1.65;77.87
76311;BME280;65120;59.304;18.294;2023-11-21T03:33:45;102067.22;;;1.66;77.96
76311;BME280;65120;59.304;18.294;2023-11-21T03:36:12;102059.47;;;1.66;77.72
76311;BME280;65120;59.304;18.294;2023-11-21T03:38:40;102062.06;;;1.66;77.96
76311;BME280;65120;59.304;18.294;2023-11-21T03:41:07;102068.94;;;1.67;77.87
76311;BME280;65120;59.304;18.294;2023-11-21T03:43:35;102065.50;;;1.66;78.03
76311;BME280;65120;59.304;18.294;2023-11-21T03:46:02;102074.09;;;1.67;77.68
76311;BME280;65120;59.304;18.294;2023-11-21T03:48:29;102073.28;;;1.68;77.79
76311;BME280;65120;59.304;18.294;2023-11-21T03:50:57;102077.56;;;1.67;77.69
76311;BME280;65120;59.304;18.294;2023-11-21T03:53:24;102076.63;;;1.65;77.62
76311;BME280;65120;59.304;18.294;2023-11-21T03:55:51;102075.84;;;1.68;77.82
76311;BME280;65120;59.304;18.294;2023-11-21T03:58:18;102076.69;;;1.67;77.50
76311;BME280;65120;59.304;18.294;2023-11-21T04:00:46;102078.41;;;1.68;77.88
76311;BME280;65120;59.304;18.294;2023-11-21T04:03:14;102078.41;;;1.68;77.37
76311;BME280;65120;59.304;18.294;2023-11-21T04:05:41;102087.94;;;1.69;77.72
76311;BME280;65120;59.304;18.294;2023-11-21T04:08:09;102095.66;;;1.69;77.62
76311;BME280;65120;59.304;18.294;2023-11-21T04:10:36;102099.09;;;1.69;77.18
76311;BME280;65120;59.304;18.294;2023-11-21T04:13:05;102099.09;;;1.69;77.93
76311;BME280;65120;59.304;18.294;2023-11-21T04:15:32;102099.97;;;1.70;77.79
76311;BME280;65120;59.304;18.294;2023-11-21T04:17:58;102105.13;;;1.70;77.29
76311;BME280;65120;59.304;18.294;2023-11-21T04:20:25;102106.00;;;1.70;77.72
76311;BME280;65120;59.304;18.294;2023-11-21T04:22:52;102099.19;;;1.71;77.54
76311;BME280;65120;59.304;18.294;2023-11-21T04:25:21;102096.59;;;1.71;77.57
76311;BME280;65120;59.304;18.294;2023-11-21T04:27:48;102100.84;;;1.70;77.71
76311;BME280;65120;59.304;18.294;2023-11-21T04:30:16;102109.47;;;1.71;77.98
76311;BME280;65120;59.304;18.294;2023-11-21T04:32:42;102111.16;;;1.70;77.85
76311;BME280;65120;59.304;18.294;2023-11-21T04:35:10;102114.69;;;1.72;77.30
76311;BME280;65120;59.304;18.294;2023-11-21T04:37:35;102119.78;;;1.71;77.83
76311;BME280;65120;59.304;18.294;2023-11-21T04:40:03;102116.38;;;1.72;77.54
76311;BME280;65120;59.304;18.294;2023-11-21T04:42:34;102117.22;;;1.71;77.62
76311;BME280;65120;59.304;18.294;2023-11-21T04:45:01;102122.38;;;1.71;77.71
76311;BME280;65120;59.304;18.294;2023-11-21T04:47:30;102132.66;;;1.71;77.62
76311;BME280;65120;59.304;18.294;2023-11-21T04:49:57;102123.16;;;1.70;78.06
76311;BME280;65120;59.304;18.294;2023-11-21T04:52:24;102129.19;;;1.70;77.52
76311;BME280;65120;59.304;18.294;2023-11-21T04:54:51;102132.66;;;1.71;77.93
76311;BME280;65120;59.304;18.294;2023-11-21T04:57:20;102132.66;;;1.71;77.39
76311;BME280;65120;59.304;18.294;2023-11-21T04:59:48;102131.75;;;1.70;77.79
76311;BME280;65120;59.304;18.294;2023-11-21T05:02:16;102137.75;;;1.69;77.59
76311;BME280;65120;59.304;18.294;2023-11-21T05:04:44;102142.13;;;1.72;77.47
76311;BME280;65120;59.304;18.294;2023-11-21T05:07:11;102149.88;;;1.72;77.63
76311;BME280;65120;59.304;18.294;2023-11-21T05:09:41;102149.00;;;1.71;77.79
76311;BME280;65120;59.304;18.294;2023-11-21T05:12:09;102151.56;;;1.71;77.97
76311;BME280;65120;59.304;18.294;2023-11-21T05:14:36;102155.91;;;1.72;78.17
76311;BME280;65120;59.304;18.294;2023-11-21T05:17:04;102155.03;;;1.72;78.09
76311;BME280;65120;59.304;18.294;2023-11-21T05:19:33;102156.75;;;1.73;77.72
76311;BME280;65120;59.304;18.294;2023-11-21T05:22:01;102159.41;;;1.74;78.02
76311;BME280;65120;59.304;18.294;2023-11-21T05:24:27;102166.28;;;1.74;78.09
76311;BME280;65120;59.304;18.294;2023-11-21T05:26:54;102168.03;;;1.75;78.27
76311;BME280;65120;59.304;18.294;2023-11-21T05:29:22;102165.44;;;1.75;77.73
76311;BME280;65120;59.304;18.294;2023-11-21T05:31:49;102167.19;;;1.76;77.83
76311;BME280;65120;59.304;18.294;2023-11-21T05:34:17;102173.22;;;1.76;77.67
76311;BME280;65120;59.304;18.294;2023-11-21T05:36:46;102176.69;;;1.77;77.65
76311;BME280;65120;59.304;18.294;2023-11-21T05:39:14;102176.69;;;1.77;77.88
76311;BME280;65120;59.304;18.294;2023-11-21T05:41:42;102180.16;;;1.77;78.06
76311;BME280;65120;59.304;18.294;2023-11-21T05:44:09;102178.44;;;1.78;78.38
76311;BME280;65120;59.304;18.294;2023-11-21T05:46:37;102189.63;;;1.78;78.39
76311;BME280;65120;59.304;18.294;2023-11-21T05:49:03;102191.41;;;1.79;78.36
76311;BME280;65120;59.304;18.294;2023-11-21T05:51:32;102193.97;;;1.79;78.33
76311;BME280;65120;59.304;18.294;2023-11-21T05:53:58;102197.44;;;1.80;78.12
76311;BME280;65120;59.304;18.294;2023-11-21T05:56:25;102202.59;;;1.80;78.56
76311;BME280;65120;59.304;18.294;2023-11-21T05:58:52;102212.06;;;1.81;78.55
76311;BME280;65120;59.304;18.294;2023-11-21T06:01:19;102211.19;;;1.80;78.23
76311;BME280;65120;59.304;18.294;2023-11-21T06:03:46;102205.19;;;1.82;78.07
76311;BME280;65120;59.304;18.294;2023-11-21T06:06:13;102207.78;;;1.82;78.33
76311;BME280;65120;59.304;18.294;2023-11-21T06:08:41;102205.28;;;1.83;78.42
76311;BME280;65120;59.304;18.294;2023-11-21T06:11:08;102213.97;;;1.85;78.15
76311;BME280;65120;59.304;18.294;2023-11-21T06:13:36;102217.41;;;1.86;78.16
76311;BME280;65120;59.304;18.294;2023-11-21T06:16:04;102220.84;;;1.86;78.15
76311;BME280;65120;59.304;18.294;2023-11-21T06:18:31;102224.31;;;1.87;78.08
76311;BME280;65120;59.304;18.294;2023-11-21T06:20:58;102229.53;;;1.88;77.89
76311;BME280;65120;59.304;18.294;2023-11-21T06:23:26;102220.03;;;1.87;78.36
76311;BME280;65120;59.304;18.294;2023-11-21T06:25:54;102226.13;;;1.89;78.28
76311;BME280;65120;59.304;18.294;2023-11-21T06:28:21;102233.94;;;1.91;78.69
76311;BME280;65120;59.304;18.294;2023-11-21T06:30:48;102242.53;;;1.91;78.50
76311;BME280;65120;59.304;18.294;2023-11-21T06:33:16;102236.56;;;1.92;78.38
76311;BME280;65120;59.304;18.294;2023-11-21T06:35:42;102243.47;;;1.93;78.42
76311;BME280;65120;59.304;18.294;2023-11-21T06:38:10;102258.13;;;1.94;78.60
76311;BME280;65120;59.304;18.294;2023-11-21T06:40:37;102251.28;;;1.95;78.29
76311;BME280;65120;59.304;18.294;2023-11-21T06:43:05;102259.00;;;1.95;78.18
76311;BME280;65120;59.304;18.294;2023-11-21T06:45:32;102261.56;;;1.95;78.61
76311;BME280;65120;59.304;18.294;2023-11-21T06:48:00;102258.91;;;1.93;78.26
76311;BME280;65120;59.304;18.294;2023-11-21T06:50:26;102262.53;;;1.97;78.51
76311;BME280;65120;59.304;18.294;2023-11-21T06:52:53;102274.59;;;1.98;78.44
76311;BME280;65120;59.304;18.294;2023-11-21T06:55:20;102275.47;;;1.98;78.67
76311;BME280;65120;59.304;18.294;2023-11-21T06:57:47;102279.81;;;1.99;78.51
76311;BME280;65120;59.304;18.294;2023-11-21T07:00:17;102276.41;;;2.00;78.06
76311;BME280;65120;59.304;18.294;2023-11-21T07:02:44;102277.16;;;1.98;78.35
76311;BME280;65120;59.304;18.294;2023-11-21T07:05:11;102283.31;;;2.01;78.79
76311;BME280;65120;59.304;18.294;2023-11-21T07:07:39;102287.59;;;2.01;78.12
76311;BME280;65120;59.304;18.294;2023-11-21T07:10:07;102291.91;;;2.02;78.36
76311;BME280;65120;59.304;18.294;2023-11-21T07:12:34;102290.25;;;2.02;78.07
76311;BME280;65120;59.304;18.294;2023-11-21T07:15:01;102289.41;;;2.03;78.63
76311;BME280;65120;59.304;18.294;2023-11-21T07:17:32;102292.88;;;2.04;78.50
76311;BME280;65120;59.304;18.294;2023-11-21T07:20:00;102293.69;;;2.03;78.59
76311;BME280;65120;59.304;18.294;2023-11-21T07:22:27;102292.88;;;2.04;78.58
76311;BME280;65120;59.304;18.294;2023-11-21T07:24:54;102298.09;;;2.06;78.65
76311;BME280;65120;59.304;18.294;2023-11-21T07:27:22;102290.38;;;2.06;78.12
76311;BME280;65120;59.304;18.294;2023-11-21T07:29:49;102298.09;;;2.06;78.33
76311;BME280;65120;59.304;18.294;2023-11-21T07:32:16;102303.25;;;2.06;78.60
76311;BME280;65120;59.304;18.294;2023-11-21T07:34:44;102297.28;;;2.07;78.26
76311;BME280;65120;59.304;18.294;2023-11-21T07:37:11;102298.16;;;2.07;78.60
76311;BME280;65120;59.304;18.294;2023-11-21T07:39:38;102305.09;;;2.08;78.50
76311;BME280;65120;59.304;18.294;2023-11-21T07:42:07;102303.31;;;2.07;78.37
76311;BME280;65120;59.304;18.294;2023-11-21T07:44:34;102298.22;;;2.09;78.29
76311;BME280;65120;59.304;18.294;2023-11-21T07:47:01;102305.13;;;2.10;78.51
76311;BME280;65120;59.304;18.294;2023-11-21T07:49:30;102304.25;;;2.09;78.29
76311;BME280;65120;59.304;18.294;2023-11-21T07:51:58;102308.66;;;2.12;78.48
76311;BME280;65120;59.304;18.294;2023-11-21T07:54:25;102307.81;;;2.13;78.09
76311;BME280;65120;59.304;18.294;2023-11-21T07:56:51;102312.09;;;2.12;78.75
76311;BME280;65120;59.304;18.294;2023-11-21T07:59:18;102293.75;;;2.05;78.24
76311;BME280;65120;59.304;18.294;2023-11-21T08:01:45;102312.97;;;2.13;78.28
76311;BME280;65120;59.304;18.294;2023-11-21T08:04:12;102318.22;;;2.14;78.11
76311;BME280;65120;59.304;18.294;2023-11-21T08:06:39;102317.16;;;2.09;78.42
76311;BME280;65120;59.304;18.294;2023-11-21T08:09:08;102326.81;;;2.15;78.56
76311;BME280;65120;59.304;18.294;2023-11-21T08:11:35;102319.97;;;2.15;78.44
76311;BME280;65120;59.304;18.294;2023-11-21T08:14:04;102325.19;;;2.17;78.53
76311;BME280;65120;59.304;18.294;2023-11-21T08:16:31;102337.25;;;2.18;78.26
76311;BME280;65120;59.304;18.294;2023-11-21T08:18:58;102333.84;;;2.19;78.56
76311;BME280;65120;59.304;18.294;2023-11-21T08:21:24;102335.50;;;2.17;78.55
76311;BME280;65120;59.304;18.294;2023-11-21T08:23:52;102338.22;;;2.20;78.26
76311;BME280;65120;59.304;18.294;2023-11-21T08:26:21;102335.63;;;2.20;78.14
76311;BME280;65120;59.304;18.294;2023-11-21T08:28:48;102338.22;;;2.20;78.38
76311;BME280;65120;59.304;18.294;2023-11-21T08:31:17;102344.28;;;2.22;78.55
76311;BME280;65120;59.304;18.294;2023-11-21T08:33:44;102347.69;;;2.21;78.56
76311;BME280;65120;59.304;18.294;2023-11-21T08:36:11;102355.56;;;2.24;78.30
76311;BME280;65120;59.304;18.294;2023-11-21T08:38:38;102356.38;;;2.23;78.59
76311;BME280;65120;59.304;18.294;2023-11-21T08:41:05;102353.84;;;2.24;78.64
76311;BME280;65120;59.304;18.294;2023-11-21T08:43:35;102368.56;;;2.27;78.58
76311;BME280;65120;59.304;18.294;2023-11-21T08:46:05;102369.44;;;2.28;78.45
76311;BME280;65120;59.304;18.294;2023-11-21T08:48:32;102379.84;;;2.29;78.17
76311;BME280;65120;59.304;18.294;2023-11-21T08:50:59;102387.56;;;2.29;78.07
76311;BME280;65120;59.304;18.294;2023-11-21T08:53:25;102379.00;;;2.30;78.14
76311;BME280;65120;59.304;18.294;2023-11-21T08:55:52;102386.75;;;2.30;78.09
76311;BME280;65120;59.304;18.294;2023-11-21T08:58:19;102385.94;;;2.31;78.05
76311;BME280;65120;59.304;18.294;2023-11-21T09:00:48;102381.53;;;2.29;78.09
76311;BME280;65120;59.304;18.294;2023-11-21T09:03:15;102392.72;;;2.29;77.99
76311;BME280;65120;59.304;18.294;2023-11-21T09:05:42;102399.63;;;2.30;77.90
76311;BME280;65120;59.304;18.294;2023-11-21T09:08:07;102396.19;;;2.30;78.03
76311;BME280;65120;59.304;18.294;2023-11-21T09:10:34;102398.84;;;2.31;77.70
76311;BME280;65120;59.304;18.294;2023-11-21T09:13:02;102398.00;;;2.32;77.67
76311;BME280;65120;59.304;18.294;2023-11-21T09:15:29;102398.88;;;2.33;77.48
76311;BME280;65120;59.304;18.294;2023-11-21T09:17:57;102396.31;;;2.33;77.87
76311;BME280;65120;59.304;18.294;2023-11-21T09:20:24;102389.44;;;2.33;77.87
76311;BME280;65120;59.304;18.294;2023-11-21T09:22:51;102404.13;;;2.34;77.77
76311;BME280;65120;59.304;18.294;2023-11-21T09:25:19;102398.09;;;2.34;77.83
76311;BME280;65120;59.304;18.294;2023-11-21T09:27:47;102405.94;;;2.37;77.68
76311;BME280;65120;59.304;18.294;2023-11-21T09:30:14;102400.78;;;2.37;77.44
76311;BME280;65120;59.304;18.294;2023-11-21T09:32:42;102402.53;;;2.38;77.14
76311;BME280;65120;59.304;18.294;2023-11-21T09:35:12;102403.41;;;2.38;77.53
76311;BME280;65120;59.304;18.294;2023-11-21T09:37:39;102406.81;;;2.37;77.44
76311;BME280;65120;59.304;18.294;2023-11-21T09:40:10;102406.94;;;2.40;77.45
76311;BME280;65120;59.304;18.294;2023-11-21T09:42:40;102410.47;;;2.42;77.23
76311;BME280;65120;59.304;18.294;2023-11-21T09:45:17;102412.22;;;2.43;77.69
76311;BME280;65120;59.304;18.294;2023-11-21T09:47:46;102416.56;;;2.44;77.20
76311;BME280;65120;59.304;18.294;2023-11-21T09:50:17;102425.22;;;2.45;77.32
76311;BME280;65120;59.304;18.294;2023-11-21T09:52:51;102427.78;;;2.45;77.54
76311;BME280;65120;59.304;18.294;2023-11-21T09:55:21;102422.63;;;2.45;77.50
76311;BME280;65120;59.304;18.294;2023-11-21T09:57:49;102432.09;;;2.46;77.10
76311;BME280;65120;59.304;18.294;2023-11-21T10:00:16;102435.66;;;2.48;77.24
76311;BME280;65120;59.304;18.294;2023-11-21T10:02:46;102439.09;;;2.48;77.15
76311;BME280;65120;59.304;18.294;2023-11-21T10:05:16;102437.41;;;2.49;77.45
76311;BME280;65120;59.304;18.294;2023-11-21T10:07:48;102443.44;;;2.50;77.13
76311;BME280;65120;59.304;18.294;2023-11-21T10:10:18;102441.69;;;2.48;77.33
76311;BME280;65120;59.304;18.294;2023-11-21T10:12:49;102440.84;;;2.50;77.23
76311;BME280;65120;59.304;18.294;2023-11-21T10:15:21;102438.28;;;2.50;77.24
76311;BME280;65120;59.304;18.294;2023-11-21T10:17:49;102442.63;;;2.51;77.24
76311;BME280;65120;59.304;18.294;2023-11-21T10:20:20;102444.38;;;2.52;77.23
76311;BME280;65120;59.304;18.294;2023-11-21T10:22:47;102450.41;;;2.52;77.46
76311;BME280;65120;59.304;18.294;2023-11-21T10:25:14;102448.59;;;2.50;77.22
76311;BME280;65120;59.304;18.294;2023-11-21T10:27:42;102447.09;;;2.55;77.53
76311;BME280;65120;59.304;18.294;2023-11-21T10:30:10;102446.25;;;2.56;77.19
76311;BME280;65120;59.304;18.294;2023-11-21T10:32:38;102444.59;;;2.56;77.61
76311;BME280;65120;59.304;18.294;2023-11-21T10:35:06;102444.63;;;2.58;77.45
76311;BME280;65120;59.304;18.294;2023-11-21T10:37:37;102444.72;;;2.59;77.63
76311;BME280;65120;59.304;18.294;2023-11-21T10:40:06;102443.88;;;2.60;77.58
76311;BME280;65120;59.304;18.294;2023-11-21T10:42:34;102443.03;;;2.61;77.22
76311;BME280;65120;59.304;18.294;2023-11-21T10:45:01;102437.97;;;2.63;77.60
76311;BME280;65120;59.304;18.294;2023-11-21T10:47:31;102449.25;;;2.65;77.37
76311;BME280;65120;59.304;18.294;2023-11-21T10:50:00;102450.13;;;2.65;77.60
76311;BME280;65120;59.304;18.294;2023-11-21T10:52:27;102451.81;;;2.65;77.45
76311;BME280;65120;59.304;18.294;2023-11-21T10:54:55;102457.91;;;2.67;77.54
76311;BME280;65120;59.304;18.294;2023-11-21T10:57:25;102461.34;;;2.67;77.35
76311;BME280;65120;59.304;18.294;2023-11-21T10:59:54;102464.84;;;2.68;77.64
76311;BME280;65120;59.304;18.294;2023-11-21T11:02:23;102468.34;;;2.70;77.33
76311;BME280;65120;59.304;18.294;2023-11-21T11:04:53;102459.81;;;2.71;77.19
76311;BME280;65120;59.304;18.294;2023-11-21T11:07:26;102471.00;;;2.72;77.18
76311;BME280;65120;59.304;18.294;2023-11-21T11:09:53;102471.00;;;2.72;77.56
76311;BME280;65120;59.304;18.294;2023-11-21T11:12:23;102465.88;;;2.73;77.16
76311;BME280;65120;59.304;18.294;2023-11-21T11:14:51;102471.13;;;2.75;77.12
76311;BME280;65120;59.304;18.294;2023-11-21T11:17:19;102471.19;;;2.76;76.99
76311;BME280;65120;59.304;18.294;2023-11-21T11:19:46;102467.78;;;2.77;76.92
76311;BME280;65120;59.304;18.294;2023-11-21T11:22:24;102472.00;;;2.75;77.07
76311;BME280;65120;59.304;18.294;2023-11-21T11:25:14;102475.53;;;2.77;76.94
76311;BME280;65120;59.304;18.294;2023-11-21T11:27:54;102482.44;;;2.78;76.54
76311;BME280;65120;59.304;18.294;2023-11-21T11:30:36;102490.25;;;2.80;76.37
76311;BME280;65120;59.304;18.294;2023-11-21T11:33:11;102489.44;;;2.81;76.30
76311;BME280;65120;59.304;18.294;2023-11-21T11:35:46;102487.72;;;2.81;76.73
76311;BME280;65120;59.304;18.294;2023-11-21T11:38:21;102492.09;;;2.82;76.43
76311;BME280;65120;59.304;18.294;2023-11-21T11:40:52;102499.88;;;2.84;76.33
76311;BME280;65120;59.304;18.294;2023-11-21T11:43:26;102501.72;;;2.86;76.20
76311;BME280;65120;59.304;18.294;2023-11-21T11:45:56;102507.75;;;2.87;76.46
76311;BME280;65120;59.304;18.294;2023-11-21T11:48:24;102508.63;;;2.87;75.28
76311;BME280;65120;59.304;18.294;2023-11-21T11:51:10;102513.78;;;2.87;75.62
76311;BME280;65120;59.304;18.294;2023-11-21T11:53:40;102524.09;;;2.87;75.38
76311;BME280;65120;59.304;18.294;2023-11-21T11:56:22;102524.09;;;2.87;75.28
76311;BME280;65120;59.304;18.294;2023-11-21T11:58:53;102529.25;;;2.87;75.42
76311;BME280;65120;59.304;18.294;2023-11-21T12:01:21;102529.25;;;2.87;75.26
76311;BME280;65120;59.304;18.294;2023-11-21T12:04:24;102535.38;;;2.89;75.46
76311;BME280;65120;59.304;18.294;2023-11-21T12:06:57;102534.44;;;2.87;74.62
76311;BME280;65120;59.304;18.294;2023-11-21T12:09:28;102537.00;;;2.87;74.16
76311;BME280;65120;59.304;18.294;2023-11-21T12:11:57;102532.69;;;2.86;74.37
76311;BME280;65120;59.304;18.294;2023-11-21T12:14:25;102528.25;;;2.84;74.10
76311;BME280;65120;59.304;18.294;2023-11-21T12:16:53;102538.72;;;2.87;73.62
76311;BME280;65120;59.304;18.294;2023-11-21T12:19:20;102539.59;;;2.87;73.25
76311;BME280;65120;59.304;18.294;2023-11-21T12:21:48;102536.84;;;2.83;73.21
76311;BME280;65120;59.304;18.294;2023-11-21T12:24:16;102540.38;;;2.85;73.31
76311;BME280;65120;59.304;18.294;2023-11-21T12:26:43;102536.09;;;2.85;73.21
76311;BME280;65120;59.304;18.294;2023-11-21T12:29:10;102549.00;;;2.85;73.22
76311;BME280;65120;59.304;18.294;2023-11-21T12:31:39;102549.78;;;2.84;73.09
76311;BME280;65120;59.304;18.294;2023-11-21T12:34:06;102554.94;;;2.84;73.38
76311;BME280;65120;59.304;18.294;2023-11-21T12:36:37;102554.16;;;2.85;73.17
76311;BME280;65120;59.304;18.294;2023-11-21T12:39:04;102555.75;;;2.82;72.77
76311;BME280;65120;59.304;18.294;2023-11-21T12:41:31;102556.59;;;2.82;72.89
76311;BME280;65120;59.304;18.294;2023-11-21T12:43:58;102564.34;;;2.82;72.90
76311;BME280;65120;59.304;18.294;2023-11-21T12:46:25;102568.56;;;2.80;71.77
76311;BME280;65120;59.304;18.294;2023-11-21T12:48:56;102561.66;;;2.79;71.96
76311;BME280;65120;59.304;18.294;2023-11-21T12:51:23;102557.97;;;2.74;72.13
76311;BME280;65120;59.304;18.294;2023-11-21T12:53:51;102566.72;;;2.78;71.44
76311;BME280;65120;59.304;18.294;2023-11-21T12:56:18;102577.88;;;2.77;70.88